Terminal Aerodrome Forecast
Issued by NWS Omaha/Valley, NE

Home | Current Version | Previous Version | Graphics & Text | Print | Product List | Glossary On
Versions: 1 2 3 4 5 6 7 8 9 10 11 12 13 14 15 16 17 18 19 20 21 22 23 24 25 26 27 28 29 30 31 32 33 34 35 36 37 38 39 40 41 42 43 44 45 46 47 48
000
FTUS43 KOAX 280359 AAB
TAFOFK
TAF AMD
KOFK 280359Z 2804/2824 10011KT 6SM -RA VCTS BKN050CB OVC110
      TEMPO 2804/2806 2SM TSRA OVC040CB
     FM280800 33011KT P6SM SCT008 BKN020
     FM281300 35011KT P6SM SCT008 OVC020
     FM281900 01012KT P6SM BKN050=

USA.gov is the U.S. government's official web portal to all federal, state and local government web resources and services.